createdAt,value
2018-08-27T00:00:53.736Z,0
2018-08-27T00:02:04.027Z,0
2018-08-27T00:03:14.268Z,0
2018-08-27T00:04:24.445Z,0
2018-08-27T00:05:34.591Z,0
2018-08-27T00:06:44.950Z,0
2018-08-27T00:07:54.838Z,0
2018-08-27T00:09:04.407Z,0
2018-08-27T00:10:14.372Z,0
2018-08-27T00:11:24.232Z,0
2018-08-27T00:12:34.465Z,0
2018-08-27T00:13:44.600Z,0
2018-08-27T00:14:54.755Z,0
2018-08-27T00:16:04.890Z,0
2018-08-27T00:17:15.082Z,0
2018-08-27T00:18:25.287Z,0
2018-08-27T00:19:35.148Z,0
2018-08-27T00:20:45.530Z,0
2018-08-27T00:21:55.742Z,0
2018-08-27T00:23:05.965Z,0
2018-08-27T00:24:16.332Z,0
2018-08-27T00:25:26.589Z,0
2018-08-27T00:26:36.734Z,0
2018-08-27T00:27:46.988Z,0
2018-08-27T00:28:57.153Z,0
2018-08-27T00:30:07.337Z,0
2018-08-27T00:31:17.552Z,0
2018-08-27T00:32:27.750Z,0
2018-08-27T00:33:37.732Z,0
2018-08-27T00:34:47.895Z,0
2018-08-27T00:35:58.021Z,0
2018-08-27T00:37:08.135Z,0
2018-08-27T00:38:18.262Z,0
2018-08-27T00:39:28.487Z,0
2018-08-27T00:40:38.676Z,0
2018-08-27T00:41:48.809Z,0
2018-08-27T00:42:58.681Z,0
2018-08-27T00:44:08.850Z,0
2018-08-27T00:45:19.004Z,0
2018-08-27T00:46:29.150Z,0
2018-08-27T00:47:39.288Z,0
2018-08-27T00:48:49.418Z,0
2018-08-27T00:49:59.408Z,0
2018-08-27T00:51:09.521Z,0
2018-08-27T00:52:19.655Z,0
2018-08-27T00:53:29.567Z,0
2018-08-27T00:54:39.687Z,0
2018-08-27T00:55:49.839Z,0
2018-08-27T00:57:00.029Z,0
2018-08-27T00:58:10.218Z,0
2018-08-27T00:59:20.400Z,0
2018-08-27T01:00:30.537Z,0
2018-08-27T01:01:40.681Z,0
2018-08-27T01:02:50.689Z,0
2018-08-27T01:04:00.483Z,0
2018-08-27T01:05:10.669Z,0
2018-08-27T01:06:20.542Z,0
2018-08-27T01:07:30.683Z,0
2018-08-27T01:08:40.881Z,0
2018-08-27T01:09:50.768Z,0
2018-08-27T01:11:00.891Z,0
2018-08-27T01:12:11.039Z,0
2018-08-27T01:13:21.186Z,0
2018-08-27T01:14:31.362Z,0
2018-08-27T01:15:41.575Z,0
2018-08-27T01:16:51.784Z,0
2018-08-27T01:18:02.015Z,0
2018-08-27T01:19:12.184Z,0
2018-08-27T01:20:22.303Z,0
2018-08-27T01:21:32.431Z,0
2018-08-27T01:22:42.672Z,0
2018-08-27T01:23:52.561Z,0
2018-08-27T01:25:02.721Z,0
2018-08-27T01:26:12.848Z,0
2018-08-27T01:27:22.607Z,0
2018-08-27T01:28:32.476Z,0
2018-08-27T01:29:42.592Z,0
2018-08-27T01:30:52.717Z,0
2018-08-27T01:32:02.850Z,0
2018-08-27T01:33:13.126Z,0
2018-08-27T01:34:22.997Z,0
2018-08-27T01:35:33.118Z,0
2018-08-27T01:36:43.274Z,0
2018-08-27T01:37:53.399Z,0
2018-08-27T01:39:03.636Z,0
2018-08-27T01:40:13.868Z,0
2018-08-27T01:41:24.101Z,0
2018-08-27T01:42:34.050Z,0
2018-08-27T01:43:44.193Z,0
2018-08-27T01:44:54.322Z,0
2018-08-27T01:46:04.434Z,0
2018-08-27T01:47:14.559Z,0
2018-08-27T01:48:24.269Z,0
2018-08-27T01:49:34.396Z,0
2018-08-27T01:50:44.547Z,0
2018-08-27T01:51:54.803Z,0
2018-08-27T01:53:04.929Z,0
2018-08-27T01:54:15.087Z,0
2018-08-27T01:55:25.333Z,0
2018-08-27T01:56:35.473Z,0
2018-08-27T01:57:45.872Z,0
2018-08-27T01:58:55.984Z,0
2018-08-27T02:00:07.199Z,0
2018-08-27T02:01:17.452Z,0
2018-08-27T02:02:27.568Z,0
2018-08-27T02:03:37.827Z,0
2018-08-27T02:04:47.543Z,0
2018-08-27T02:05:57.692Z,0
2018-08-27T02:07:07.896Z,0
2018-08-27T02:08:18.117Z,0
2018-08-27T02:09:27.666Z,0
2018-08-27T02:10:37.546Z,0
2018-08-27T02:11:47.670Z,0
2018-08-27T02:12:57.794Z,0
2018-08-27T02:14:07.930Z,0
2018-08-27T02:15:18.077Z,0
2018-08-27T02:16:27.935Z,0
2018-08-27T02:17:38.082Z,0
2018-08-27T02:18:48.288Z,0
2018-08-27T02:19:58.488Z,0
2018-08-27T02:21:09.101Z,0
2018-08-27T02:22:19.065Z,0
2018-08-27T02:23:29.226Z,0
2018-08-27T02:24:39.384Z,0
2018-08-27T02:25:49.213Z,0
2018-08-27T02:26:59.092Z,0
2018-08-27T02:28:09.222Z,0
2018-08-27T02:29:19.001Z,0
2018-08-27T02:30:29.133Z,0
2018-08-27T02:31:39.302Z,0
2018-08-27T02:32:49.503Z,0
2018-08-27T02:33:59.630Z,0
2018-08-27T02:35:10.196Z,0
2018-08-27T02:36:20.170Z,0
2018-08-27T02:37:29.800Z,0
2018-08-27T02:38:40.056Z,0
2018-08-27T02:39:50.151Z,0
2018-08-27T02:41:00.261Z,0
2018-08-27T02:42:10.378Z,0
2018-08-27T02:43:20.512Z,0
2018-08-27T02:44:30.385Z,0
2018-08-27T02:45:40.598Z,0
2018-08-27T02:46:50.771Z,0
2018-08-27T02:48:00.883Z,0
2018-08-27T02:49:10.776Z,0
2018-08-27T02:50:20.647Z,0
2018-08-27T02:51:30.807Z,0
2018-08-27T02:52:40.948Z,0
2018-08-27T02:53:51.116Z,0
2018-08-27T02:55:01.041Z,0
2018-08-27T02:56:11.203Z,0
2018-08-27T02:57:20.834Z,0
2018-08-27T02:58:31.030Z,0
2018-08-27T02:59:41.182Z,0
2018-08-27T03:00:51.354Z,0
2018-08-27T03:02:01.535Z,0
2018-08-27T03:03:11.676Z,0
2018-08-27T03:04:21.951Z,0
2018-08-27T03:05:32.176Z,0
2018-08-27T03:06:42.091Z,0
2018-08-27T03:07:52.211Z,0
2018-08-27T03:09:02.484Z,0
2018-08-27T03:10:12.610Z,0
2018-08-27T03:11:22.811Z,0
2018-08-27T03:12:32.668Z,0
2018-08-27T03:13:42.636Z,0
2018-08-27T03:14:52.491Z,0
2018-08-27T03:16:02.620Z,0
2018-08-27T03:17:12.743Z,0
2018-08-27T03:18:23.389Z,0
2018-08-27T03:19:33.572Z,0
2018-08-27T03:20:43.710Z,0
2018-08-27T03:21:54.822Z,0
2018-08-27T03:23:06.081Z,0
2018-08-27T03:24:16.461Z,0
2018-08-27T03:25:26.080Z,0
2018-08-27T03:26:36.483Z,0
2018-08-27T03:27:46.808Z,0
2018-08-27T03:28:56.434Z,0
2018-08-27T03:30:06.594Z,0
2018-08-27T03:31:16.485Z,0
2018-08-27T03:32:26.648Z,0
2018-08-27T03:33:37.081Z,0
2018-08-27T03:34:47.232Z,0
2018-08-27T03:35:57.130Z,0
2018-08-27T03:37:07.304Z,0
2018-08-27T03:38:17.781Z,0
2018-08-27T03:39:27.911Z,0
2018-08-27T03:40:38.335Z,0
2018-08-27T03:41:48.157Z,0
2018-08-27T03:42:58.348Z,0
2018-08-27T03:44:08.536Z,0
2018-08-27T03:45:18.669Z,0
2018-08-27T03:46:28.819Z,0
2018-08-27T03:47:38.902Z,0
2018-08-27T03:48:49.370Z,0
2018-08-27T03:49:59.534Z,0
2018-08-27T03:51:09.675Z,0
2018-08-27T03:52:19.815Z,0
2018-08-27T03:53:29.955Z,0
2018-08-27T03:54:40.202Z,0
2018-08-27T03:55:50.351Z,0
2018-08-27T03:57:00.523Z,0
2018-08-27T03:58:10.662Z,0
2018-08-27T03:59:20.613Z,0
2018-08-27T04:00:30.842Z,0
2018-08-27T04:01:41.087Z,0
2018-08-27T04:02:50.939Z,0
2018-08-27T04:04:01.079Z,0
2018-08-27T04:05:11.011Z,0
2018-08-27T04:06:21.153Z,0
2018-08-27T04:07:31.273Z,0
2018-08-27T04:08:41.428Z,0
2018-08-27T04:09:51.591Z,0
2018-08-27T04:11:01.386Z,0
2018-08-27T04:12:11.274Z,0
2018-08-27T04:13:21.436Z,0
2018-08-27T04:14:31.556Z,0
2018-08-27T04:15:41.735Z,0
2018-08-27T04:16:51.872Z,0
2018-08-27T04:18:02.229Z,0
2018-08-27T04:19:12.393Z,0
2018-08-27T04:20:22.643Z,5
2018-08-27T04:21:32.921Z,5
2018-08-27T04:22:43.137Z,5
2018-08-27T04:23:53.014Z,5
2018-08-27T04:25:03.152Z,5
2018-08-27T04:26:13.519Z,5
2018-08-27T04:27:23.643Z,5
2018-08-27T04:28:33.802Z,5
2018-08-27T04:29:44.034Z,5
2018-08-27T04:30:54.160Z,5
2018-08-27T04:32:04.351Z,5
2018-08-27T04:33:14.489Z,10
2018-08-27T04:34:24.649Z,10
2018-08-27T04:35:34.772Z,10
2018-08-27T04:36:44.965Z,10
2018-08-27T04:37:54.822Z,10
2018-08-27T04:39:04.975Z,10
2018-08-27T04:40:14.854Z,15
2018-08-27T04:41:25.011Z,15
2018-08-27T04:42:35.430Z,15
2018-08-27T04:43:45.438Z,15
2018-08-27T04:44:55.457Z,20
2018-08-27T04:46:05.357Z,20
2018-08-27T04:47:15.857Z,20
2018-08-27T04:48:25.991Z,25
2018-08-27T04:49:36.075Z,25
2018-08-27T04:50:46.036Z,30
2018-08-27T04:51:56.219Z,30
2018-08-27T04:53:06.110Z,30
2018-08-27T04:54:16.276Z,35
2018-08-27T04:55:26.410Z,35
2018-08-27T04:56:36.813Z,35
2018-08-27T04:57:46.943Z,40
2018-08-27T04:58:57.110Z,40
2018-08-27T05:00:07.317Z,40
2018-08-27T05:01:17.506Z,45
2018-08-27T05:02:27.660Z,45
2018-08-27T05:03:37.914Z,45
2018-08-27T05:04:48.156Z,45
2018-08-27T05:05:58.342Z,40
2018-08-27T05:07:08.549Z,40
2018-08-27T05:08:18.887Z,45
2018-08-27T05:09:29.074Z,45
2018-08-27T05:10:39.442Z,50
2018-08-27T05:11:49.312Z,50
2018-08-27T05:12:59.431Z,45
2018-08-27T05:14:09.211Z,40
2018-08-27T05:15:19.355Z,40
2018-08-27T05:16:29.597Z,45
2018-08-27T05:17:39.736Z,45
2018-08-27T05:18:49.605Z,50
2018-08-27T05:19:59.755Z,50
2018-08-27T05:21:09.687Z,55
2018-08-27T05:22:19.799Z,55
2018-08-27T05:23:29.946Z,55
2018-08-27T05:24:40.081Z,55
2018-08-27T05:25:49.972Z,60
2018-08-27T05:27:00.093Z,60
2018-08-27T05:28:10.457Z,60
2018-08-27T05:29:20.589Z,65
2018-08-27T05:30:30.839Z,70
2018-08-27T05:31:41.329Z,70
2018-08-27T05:32:51.483Z,75
2018-08-27T05:34:02.751Z,70
2018-08-27T05:35:13.003Z,75
2018-08-27T05:36:23.202Z,70
2018-08-27T05:37:33.482Z,70
2018-08-27T05:38:44.286Z,70
2018-08-27T05:39:54.426Z,70
2018-08-27T05:41:04.569Z,70
2018-08-27T05:42:14.713Z,70
2018-08-27T05:43:25.847Z,75
2018-08-27T05:44:36.398Z,85
2018-08-27T05:45:46.326Z,90
2018-08-27T05:46:56.531Z,95
2018-08-27T05:48:06.714Z,105
2018-08-27T05:49:16.847Z,110
2018-08-27T05:50:27.019Z,110
2018-08-27T05:51:37.173Z,100
2018-08-27T05:52:47.294Z,90
2018-08-27T05:53:57.558Z,90
2018-08-27T05:55:07.706Z,100
2018-08-27T05:56:17.954Z,110
2018-08-27T05:57:28.234Z,115
2018-08-27T05:58:38.581Z,135
2018-08-27T05:59:48.760Z,135
2018-08-27T06:00:58.888Z,125
2018-08-27T06:02:09.586Z,115
2018-08-27T06:03:19.745Z,115
2018-08-27T06:04:29.912Z,100
2018-08-27T06:05:40.080Z,95
2018-08-27T06:06:49.940Z,100
2018-08-27T06:08:00.117Z,110
2018-08-27T06:09:10.267Z,110
2018-08-27T06:10:20.363Z,110
2018-08-27T06:11:30.482Z,105
2018-08-27T06:12:40.636Z,95
2018-08-27T06:13:50.278Z,85
2018-08-27T06:15:00.434Z,85
2018-08-27T06:16:10.807Z,80
2018-08-27T06:17:21.525Z,80
2018-08-27T06:18:31.597Z,80
2018-08-27T06:19:41.884Z,80
2018-08-27T06:20:52.056Z,85
2018-08-27T06:22:02.835Z,90
2018-08-27T06:23:13.128Z,90
2018-08-27T06:24:23.321Z,85
2018-08-27T06:25:33.575Z,90
2018-08-27T06:26:43.717Z,100
2018-08-27T06:27:53.903Z,105
2018-08-27T06:29:04.088Z,110
2018-08-27T06:30:14.313Z,110
2018-08-27T06:31:24.557Z,110
2018-08-27T06:32:35.158Z,110
2018-08-27T06:33:45.167Z,110
2018-08-27T06:34:55.348Z,115
2018-08-27T06:36:05.518Z,115
2018-08-27T06:37:15.711Z,115
2018-08-27T06:38:25.913Z,115
2018-08-27T06:39:35.904Z,110
2018-08-27T06:40:46.281Z,105
2018-08-27T06:41:56.631Z,100
2018-08-27T06:43:06.780Z,100
2018-08-27T06:44:16.719Z,105
2018-08-27T06:45:26.847Z,105
2018-08-27T06:46:36.782Z,105
2018-08-27T06:47:46.676Z,100
2018-08-27T06:48:56.938Z,100
2018-08-27T06:50:07.234Z,100
2018-08-27T06:51:17.422Z,100
2018-08-27T06:52:27.580Z,100
2018-08-27T06:53:37.766Z,95
2018-08-27T06:54:48.093Z,95
2018-08-27T06:55:58.357Z,95
2018-08-27T06:57:08.492Z,110
2018-08-27T06:58:18.682Z,125
2018-08-27T06:59:28.983Z,135
2018-08-27T07:00:39.198Z,145
2018-08-27T07:01:49.433Z,155
2018-08-27T07:02:59.826Z,160
2018-08-27T07:04:09.895Z,170
2018-08-27T07:05:20.086Z,170
2018-08-27T07:06:30.223Z,165
2018-08-27T07:07:40.243Z,160
2018-08-27T07:08:50.685Z,145
2018-08-27T07:10:01.172Z,125
2018-08-27T07:11:11.331Z,120
2018-08-27T07:12:21.454Z,115
2018-08-27T07:13:31.637Z,110
2018-08-27T07:14:41.927Z,110
2018-08-27T07:15:52.109Z,110
2018-08-27T07:17:02.314Z,115
2018-08-27T07:18:12.551Z,120
2018-08-27T07:19:22.440Z,130
2018-08-27T07:20:32.278Z,130
2018-08-27T07:21:42.415Z,135
2018-08-27T07:22:53.853Z,145
2018-08-27T07:24:04.010Z,160
2018-08-27T07:25:14.372Z,160
2018-08-27T07:26:24.497Z,165
2018-08-27T07:27:35.528Z,190
2018-08-27T07:28:45.771Z,205
2018-08-27T07:29:55.918Z,215
2018-08-27T07:31:06.078Z,220
2018-08-27T07:32:16.472Z,230
2018-08-27T07:33:26.766Z,225
2018-08-27T07:34:36.716Z,235
2018-08-27T07:35:46.880Z,235
2018-08-27T07:36:56.767Z,235
2018-08-27T07:38:06.908Z,235
2018-08-27T07:39:17.245Z,230
2018-08-27T07:40:26.897Z,230
2018-08-27T07:41:36.760Z,230
2018-08-27T07:42:46.925Z,215
2018-08-27T07:43:57.069Z,205
2018-08-27T07:45:07.271Z,205
2018-08-27T07:46:17.412Z,215
2018-08-27T07:47:27.631Z,235
2018-08-27T07:48:37.799Z,245
2018-08-27T07:49:48.018Z,240
2018-08-27T07:50:58.238Z,240
2018-08-27T07:52:08.563Z,245
2018-08-27T07:53:18.760Z,260
2018-08-27T07:54:28.903Z,270
2018-08-27T07:55:39.290Z,285
2018-08-27T07:56:49.465Z,290
2018-08-27T07:57:59.608Z,275
2018-08-27T07:59:10.016Z,270
2018-08-27T08:00:19.884Z,255
2018-08-27T08:01:30.163Z,240
2018-08-27T08:02:40.378Z,245
2018-08-27T08:03:51.556Z,255
2018-08-27T08:05:01.717Z,280
2018-08-27T08:06:12.075Z,305
2018-08-27T08:07:22.851Z,325
2018-08-27T08:08:33.096Z,345
2018-08-27T08:09:43.291Z,360
2018-08-27T08:10:53.265Z,335
2018-08-27T08:12:03.346Z,330
2018-08-27T08:13:13.537Z,325
2018-08-27T08:14:23.699Z,310
2018-08-27T08:15:33.854Z,270
2018-08-27T08:16:44.038Z,260
2018-08-27T08:17:53.963Z,245
2018-08-27T08:19:04.092Z,225
2018-08-27T08:20:14.223Z,200
2018-08-27T08:21:24.102Z,200
2018-08-27T08:22:34.441Z,205
2018-08-27T08:23:44.580Z,205
2018-08-27T08:24:54.663Z,200
2018-08-27T08:26:04.839Z,190
2018-08-27T08:27:15.240Z,190
2018-08-27T08:28:25.173Z,185
2018-08-27T08:29:35.371Z,180
2018-08-27T08:30:45.501Z,180
2018-08-27T08:31:55.369Z,195
2018-08-27T08:33:05.876Z,200
2018-08-27T08:34:16.038Z,200
2018-08-27T08:35:26.224Z,195
2018-08-27T08:36:36.558Z,185
2018-08-27T08:37:46.700Z,190
2018-08-27T08:38:56.586Z,195
2018-08-27T08:40:07.646Z,195
2018-08-27T08:41:17.806Z,195
2018-08-27T08:42:27.720Z,205
2018-08-27T08:43:37.603Z,200
2018-08-27T08:44:47.466Z,200
2018-08-27T08:45:57.348Z,200
2018-08-27T08:47:07.476Z,200
2018-08-27T08:48:17.618Z,180
2018-08-27T08:49:27.754Z,150
2018-08-27T08:50:37.774Z,130
2018-08-27T08:51:47.133Z,125
2018-08-27T08:52:57.261Z,135
2018-08-27T08:54:07.450Z,145
2018-08-27T08:55:17.327Z,155
2018-08-27T08:56:27.489Z,165
2018-08-27T08:57:37.671Z,170
2018-08-27T08:58:47.843Z,175
2018-08-27T08:59:57.999Z,175
2018-08-27T09:01:08.461Z,170
2018-08-27T09:02:18.609Z,170
2018-08-27T09:03:28.768Z,180
2018-08-27T09:04:38.913Z,200
2018-08-27T09:05:49.124Z,200
2018-08-27T09:06:59.288Z,180
2018-08-27T09:08:09.611Z,165
2018-08-27T09:09:19.833Z,160
2018-08-27T09:10:30.000Z,160
2018-08-27T09:11:40.229Z,160
2018-08-27T09:12:50.373Z,165
2018-08-27T09:14:00.550Z,170
2018-08-27T09:15:11.054Z,170
2018-08-27T09:16:21.418Z,180
2018-08-27T09:17:31.773Z,190
2018-08-27T09:18:42.037Z,210
2018-08-27T09:19:51.832Z,225
2018-08-27T09:21:02.214Z,230
2018-08-27T09:22:12.331Z,235
2018-08-27T09:23:22.493Z,255
2018-08-27T09:24:32.653Z,290
2018-08-27T09:25:42.799Z,310
2018-08-27T09:26:53.027Z,305
2018-08-27T09:28:03.267Z,270
2018-08-27T09:29:13.140Z,250
2018-08-27T09:30:23.755Z,265
2018-08-27T09:31:34.750Z,290
2018-08-27T09:32:44.638Z,265
2018-08-27T09:33:54.803Z,250
2018-08-27T09:35:04.989Z,295
2018-08-27T09:36:15.241Z,375
2018-08-27T09:37:24.505Z,385
2018-08-27T09:38:34.842Z,380
2018-08-27T09:39:44.998Z,380
2018-08-27T09:40:55.135Z,310
2018-08-27T09:42:05.199Z,260
2018-08-27T09:43:15.430Z,265
2018-08-27T09:44:25.566Z,295
2018-08-27T09:45:35.725Z,290
2018-08-27T09:46:46.170Z,280
2018-08-27T09:47:56.367Z,270
2018-08-27T09:49:06.488Z,245
2018-08-27T09:50:16.616Z,240
2018-08-27T09:51:26.780Z,225
2018-08-27T09:52:37.050Z,245
2018-08-27T09:53:47.193Z,265
2018-08-27T09:54:57.054Z,250
2018-08-27T09:56:07.244Z,245
2018-08-27T09:57:17.416Z,210
2018-08-27T09:58:27.753Z,190
2018-08-27T09:59:37.934Z,200
2018-08-27T10:00:49.065Z,290
2018-08-27T10:01:59.206Z,255
2018-08-27T10:03:09.375Z,265
2018-08-27T10:04:19.578Z,280
2018-08-27T10:05:29.460Z,300
2018-08-27T10:06:39.633Z,365
2018-08-27T10:07:49.605Z,350
2018-08-27T10:08:59.952Z,300
2018-08-27T10:10:10.289Z,280
2018-08-27T10:11:20.670Z,310
2018-08-27T10:12:30.833Z,310
2018-08-27T10:13:41.001Z,280
2018-08-27T10:14:51.384Z,245
2018-08-27T10:16:01.564Z,245
2018-08-27T10:17:11.720Z,240
2018-08-27T10:18:22.915Z,250
2018-08-27T10:19:33.069Z,260
2018-08-27T10:20:43.230Z,265
2018-08-27T10:21:53.485Z,295
2018-08-27T10:23:03.758Z,345
2018-08-27T10:24:14.013Z,340
2018-08-27T10:25:24.189Z,310
2018-08-27T10:26:34.494Z,280
2018-08-27T10:27:44.521Z,280
2018-08-27T10:28:55.000Z,245
2018-08-27T10:30:05.378Z,240
2018-08-27T10:31:15.600Z,260
2018-08-27T10:32:25.775Z,260
2018-08-27T10:33:35.923Z,230
2018-08-27T10:34:45.938Z,225
2018-08-27T10:35:56.168Z,230
2018-08-27T10:37:06.514Z,220
2018-08-27T10:38:16.704Z,225
2018-08-27T10:39:26.835Z,235
2018-08-27T10:40:37.177Z,225
2018-08-27T10:41:46.957Z,190
2018-08-27T10:42:57.286Z,165
2018-08-27T10:44:07.658Z,165
2018-08-27T10:45:18.031Z,165
2018-08-27T10:46:28.192Z,155
2018-08-27T10:47:38.594Z,150
2018-08-27T10:48:48.756Z,150
2018-08-27T10:49:58.897Z,160
2018-08-27T10:51:09.044Z,175
2018-08-27T10:52:18.975Z,210
2018-08-27T10:53:28.919Z,225
2018-08-27T10:54:39.245Z,270
2018-08-27T10:55:49.157Z,330
2018-08-27T10:56:59.503Z,390
2018-08-27T10:58:09.721Z,370
2018-08-27T10:59:20.087Z,365
2018-08-27T11:00:30.036Z,330
2018-08-27T11:01:40.175Z,320
2018-08-27T11:02:50.375Z,315
2018-08-27T11:04:00.552Z,285
2018-08-27T11:05:10.980Z,270
2018-08-27T11:06:21.244Z,235
2018-08-27T11:07:31.402Z,240
2018-08-27T11:08:41.545Z,240
2018-08-27T11:09:51.692Z,205
2018-08-27T11:11:01.880Z,195
2018-08-27T11:12:12.165Z,200
2018-08-27T11:13:22.421Z,210
2018-08-27T11:14:32.886Z,220
2018-08-27T11:15:43.075Z,220
2018-08-27T11:16:53.255Z,235
2018-08-27T11:18:03.512Z,250
2018-08-27T11:19:13.669Z,255
2018-08-27T11:20:24.149Z,265
2018-08-27T11:21:34.427Z,270
2018-08-27T11:22:44.835Z,240
2018-08-27T11:23:54.629Z,215
2018-08-27T11:25:04.537Z,190
2018-08-27T11:26:14.750Z,195
2018-08-27T11:27:24.603Z,205
2018-08-27T11:28:34.744Z,210
2018-08-27T11:29:45.088Z,205
2018-08-27T11:30:55.230Z,225
2018-08-27T11:32:06.353Z,225
2018-08-27T11:33:16.755Z,200
2018-08-27T11:34:26.921Z,195
2018-08-27T11:35:37.125Z,215
2018-08-27T11:36:47.274Z,235
2018-08-27T11:37:57.405Z,230
2018-08-27T11:39:07.587Z,210
2018-08-27T11:40:17.831Z,180
2018-08-27T11:41:28.041Z,160
2018-08-27T11:42:38.241Z,160
2018-08-27T11:43:48.712Z,190
2018-08-27T11:44:58.843Z,190
2018-08-27T11:46:09.243Z,180
2018-08-27T11:47:19.398Z,175
2018-08-27T11:48:29.798Z,180
2018-08-27T11:49:39.954Z,190
2018-08-27T11:50:50.881Z,205
2018-08-27T11:52:01.359Z,205
2018-08-27T11:53:11.504Z,200
2018-08-27T11:54:21.634Z,175
2018-08-27T11:55:31.810Z,165
2018-08-27T11:56:42.163Z,160
2018-08-27T11:57:52.328Z,140
2018-08-27T11:59:02.489Z,135
2018-08-27T12:00:12.677Z,135
2018-08-27T12:01:22.917Z,140
2018-08-27T12:02:33.101Z,140
2018-08-27T12:03:43.272Z,145
2018-08-27T12:04:53.424Z,145
2018-08-27T12:06:03.683Z,165
2018-08-27T12:07:13.829Z,205
2018-08-27T12:08:24.085Z,280
2018-08-27T12:09:34.219Z,300
2018-08-27T12:10:44.389Z,380
2018-08-27T12:11:54.162Z,520
2018-08-27T12:13:04.304Z,510
2018-08-27T12:14:14.035Z,1055
2018-08-27T12:15:24.186Z,725
2018-08-27T12:16:34.402Z,780
2018-08-27T12:17:44.177Z,645
2018-08-27T12:18:53.792Z,550
2018-08-27T12:20:03.978Z,420
2018-08-27T12:21:14.220Z,330
2018-08-27T12:22:24.152Z,305
2018-08-27T12:23:34.303Z,275
2018-08-27T12:24:44.453Z,280
2018-08-27T12:25:54.234Z,300
2018-08-27T12:27:04.437Z,305
2018-08-27T12:28:14.777Z,320
2018-08-27T12:29:25.104Z,345
2018-08-27T12:30:35.003Z,350
2018-08-27T12:31:45.216Z,375
2018-08-27T12:32:55.435Z,395
2018-08-27T12:34:05.347Z,400
2018-08-27T12:35:15.533Z,410
2018-08-27T12:36:25.710Z,410
2018-08-27T12:37:35.937Z,395
2018-08-27T12:38:46.098Z,385
2018-08-27T12:39:56.281Z,355
2018-08-27T12:41:07.385Z,365
2018-08-27T12:42:17.708Z,430
2018-08-27T12:43:27.940Z,475
2018-08-27T12:44:37.414Z,525
2018-08-27T12:45:47.584Z,555
2018-08-27T12:46:57.736Z,555
2018-08-27T12:48:07.901Z,570
2018-08-27T12:49:18.038Z,580
2018-08-27T12:50:28.271Z,645
2018-08-27T12:51:38.134Z,670
2018-08-27T12:52:48.275Z,735
2018-08-27T12:53:58.541Z,740
2018-08-27T12:55:08.759Z,725
2018-08-27T12:56:19.909Z,925
2018-08-27T12:57:30.255Z,730
2018-08-27T12:58:40.944Z,635
2018-08-27T12:59:51.179Z,585
2018-08-27T13:01:01.335Z,520
2018-08-27T13:02:11.738Z,450
2018-08-27T13:03:21.902Z,410
2018-08-27T13:04:32.270Z,460
2018-08-27T13:05:42.918Z,475
2018-08-27T13:06:53.409Z,550
2018-08-27T13:08:03.834Z,605
2018-08-27T13:09:13.691Z,545
2018-08-27T13:10:23.889Z,610
2018-08-27T13:11:34.591Z,950
2018-08-27T13:12:45.282Z,1450
2018-08-27T13:13:55.133Z,1530
2018-08-27T13:15:05.587Z,1245
2018-08-27T13:16:15.728Z,1475
2018-08-27T13:17:25.966Z,1320
2018-08-27T13:18:36.123Z,1395
2018-08-27T13:19:46.046Z,730
2018-08-27T13:20:56.220Z,1390
2018-08-27T13:22:06.424Z,1435
2018-08-27T13:23:16.568Z,1260
2018-08-27T13:24:26.714Z,1405
2018-08-27T13:25:37.227Z,830
2018-08-27T13:26:47.313Z,750
2018-08-27T13:27:57.463Z,545
2018-08-27T13:29:07.674Z,620
2018-08-27T13:30:17.906Z,875
2018-08-27T13:31:28.344Z,490
2018-08-27T13:32:38.815Z,525
2018-08-27T13:33:49.070Z,555
2018-08-27T13:34:59.322Z,555
2018-08-27T13:36:09.508Z,615
2018-08-27T13:37:19.683Z,635
2018-08-27T13:38:29.847Z,705
2018-08-27T13:39:39.752Z,610
2018-08-27T13:40:50.250Z,495
2018-08-27T13:42:00.999Z,405
2018-08-27T13:43:11.240Z,390
2018-08-27T13:44:21.451Z,335
2018-08-27T13:45:31.862Z,375
2018-08-27T13:46:42.027Z,405
2018-08-27T13:47:52.256Z,430
2018-08-27T13:49:02.838Z,425
2018-08-27T13:50:13.114Z,560
2018-08-27T13:51:23.219Z,520
2018-08-27T13:52:33.485Z,380
2018-08-27T13:53:43.708Z,350
2018-08-27T13:54:55.040Z,285
2018-08-27T13:56:05.183Z,240
2018-08-27T13:57:15.355Z,225
2018-08-27T13:58:25.614Z,230
2018-08-27T13:59:35.810Z,280
2018-08-27T14:00:45.976Z,315
2018-08-27T14:01:56.488Z,355
2018-08-27T14:03:06.613Z,350
2018-08-27T14:04:16.857Z,360
2018-08-27T14:05:27.413Z,330
2018-08-27T14:06:37.522Z,355
2018-08-27T14:07:47.750Z,335
2018-08-27T14:08:58.098Z,315
2018-08-27T14:10:08.268Z,290
2018-08-27T14:11:18.442Z,270
2018-08-27T14:12:28.980Z,280
2018-08-27T14:13:39.146Z,300
2018-08-27T14:14:49.873Z,300
2018-08-27T14:16:00.538Z,250
2018-08-27T14:17:10.671Z,185
2018-08-27T14:18:20.846Z,175
2018-08-27T14:19:31.733Z,165
2018-08-27T14:20:42.563Z,170
2018-08-27T14:21:53.102Z,165
2018-08-27T14:23:03.299Z,180
2018-08-27T14:24:13.473Z,215
2018-08-27T14:25:23.685Z,275
2018-08-27T14:26:33.809Z,305
2018-08-27T14:27:43.996Z,310
2018-08-27T14:28:54.234Z,245
2018-08-27T14:30:04.843Z,205
2018-08-27T14:31:15.094Z,190
2018-08-27T14:32:25.391Z,195
2018-08-27T14:33:35.601Z,185
2018-08-27T14:34:45.795Z,175
2018-08-27T14:35:56.005Z,190
2018-08-27T14:37:06.228Z,185
2018-08-27T14:38:16.009Z,170
2018-08-27T14:39:26.455Z,165
2018-08-27T14:40:37.159Z,170
2018-08-27T14:41:47.792Z,165
2018-08-27T14:42:57.995Z,160
2018-08-27T14:44:08.182Z,155
2018-08-27T14:45:18.559Z,155
2018-08-27T14:46:28.737Z,155
2018-08-27T14:47:38.964Z,170
2018-08-27T14:48:49.321Z,185
2018-08-27T14:49:59.479Z,195
2018-08-27T14:51:09.843Z,190
2018-08-27T14:52:20.011Z,200
2018-08-27T14:53:30.333Z,180
2018-08-27T14:54:40.571Z,170
2018-08-27T14:55:50.476Z,155
2018-08-27T14:57:00.624Z,140
2018-08-27T14:58:10.513Z,140
2018-08-27T14:59:20.684Z,145
2018-08-27T15:00:30.844Z,135
2018-08-27T15:01:41.007Z,120
2018-08-27T15:02:51.213Z,110
2018-08-27T15:04:01.434Z,100
2018-08-27T15:05:11.802Z,105
2018-08-27T15:06:22.016Z,200
2018-08-27T15:07:31.825Z,185
2018-08-27T15:08:42.743Z,200
2018-08-27T15:09:53.203Z,220
2018-08-27T15:11:03.385Z,235
2018-08-27T15:12:13.586Z,245
2018-08-27T15:13:23.786Z,235
2018-08-27T15:14:33.960Z,230
2018-08-27T15:15:44.139Z,370
2018-08-27T15:16:54.828Z,250
2018-08-27T15:18:05.043Z,245
2018-08-27T15:19:15.292Z,270
2018-08-27T15:20:25.537Z,260
2018-08-27T15:21:35.788Z,265
2018-08-27T15:22:45.942Z,265
2018-08-27T15:23:56.286Z,290
2018-08-27T15:25:06.453Z,305
2018-08-27T15:26:16.669Z,325
2018-08-27T15:27:27.067Z,520
2018-08-27T15:28:36.963Z,515
2018-08-27T15:29:47.184Z,525
2018-08-27T15:30:57.425Z,525
2018-08-27T15:32:07.705Z,540
2018-08-27T15:33:17.900Z,560
2018-08-27T15:34:28.151Z,540
2018-08-27T15:35:38.127Z,525
2018-08-27T15:36:48.031Z,550
2018-08-27T15:37:58.319Z,325
2018-08-27T15:39:09.141Z,300
2018-08-27T15:40:19.307Z,265
2018-08-27T15:41:29.524Z,320
2018-08-27T15:42:39.703Z,280
2018-08-27T15:43:49.943Z,290
2018-08-27T15:45:00.126Z,275
2018-08-27T15:46:10.344Z,265
2018-08-27T15:47:20.545Z,275
2018-08-27T15:48:30.725Z,290
2018-08-27T15:49:41.003Z,290
2018-08-27T15:50:52.032Z,280
2018-08-27T15:52:03.272Z,315
2018-08-27T15:53:13.235Z,305
2018-08-27T15:54:23.132Z,285
2018-08-27T15:55:33.564Z,275
2018-08-27T15:56:43.774Z,265
2018-08-27T15:57:54.058Z,255
2018-08-27T15:59:04.275Z,245
2018-08-27T16:00:14.438Z,240
2018-08-27T16:01:24.749Z,235
2018-08-27T16:02:34.987Z,230
2018-08-27T16:03:45.278Z,225
2018-08-27T16:04:55.548Z,225
2018-08-27T16:06:05.309Z,220
2018-08-27T16:07:15.500Z,220
2018-08-27T16:08:26.621Z,215
2018-08-27T16:09:36.795Z,215
2018-08-27T16:10:46.962Z,210
2018-08-27T16:11:57.360Z,205
2018-08-27T16:13:07.688Z,200
2018-08-27T16:14:17.839Z,205
2018-08-27T16:15:27.239Z,200
2018-08-27T16:16:37.130Z,195
2018-08-27T16:17:47.346Z,190
2018-08-27T16:18:58.002Z,190
2018-08-27T16:20:08.741Z,185
2018-08-27T16:21:19.291Z,180
2018-08-27T16:22:29.859Z,180
2018-08-27T16:23:40.248Z,175
2018-08-27T16:24:50.526Z,170
2018-08-27T16:26:00.690Z,175
2018-08-27T16:27:10.938Z,165
2018-08-27T16:28:21.132Z,160